Terminal Aerodrome Forecast
Issued by NWS

Home | Current Version | Previous Version | Text Only | Print | Product List | Glossary On
Versions: 1 2 3 4 5 6 7 8 9 10 11 12 13 14 15 16
000
FTUS43 KEAX 021120
TAFSTJ
TAF
KSTJ 021120Z 0212/0312 16010KT P6SM VCTS BKN090CB
      TEMPO 0212/0215 6SM -TSRA BKN060CB
     FM021700 19015G22KT P6SM SCT060
     FM030000 18007KT P6SM SCT120=

USA.gov is the U.S. government's official web portal to all federal, state and local government web resources and services.